sensor_id;sensor_type;location;lat;lon;timestamp;P1;durP1;ratioP1;P2;durP2;ratioP2
22812;SDS011;11573;51.334;3.244;2023-04-24T02:13:32;21.25;;;7.75;;
22812;SDS011;11573;51.334;3.244;2023-04-24T02:32:13;28.55;;;11.68;;
22812;SDS011;11573;51.334;3.244;2023-04-24T02:43:48;26.60;;;12.70;;
22812;SDS011;11573;51.334;3.244;2023-04-24T02:49:24;46.25;;;13.55;;
22812;SDS011;11573;51.334;3.244;2023-04-24T02:55:24;30.90;;;12.85;;
22812;SDS011;11573;51.334;3.244;2023-04-24T03:52:36;29.90;;;11.80;;
22812;SDS011;11573;51.334;3.244;2023-04-24T05:37:02;8.70;;;5.30;;
22812;SDS011;11573;51.334;3.244;2023-04-24T05:39:29;25.30;;;9.93;;
22812;SDS011;11573;51.334;3.244;2023-04-24T05:41:58;24.95;;;9.07;;
22812;SDS011;11573;51.334;3.244;2023-04-24T05:44:25;21.95;;;8.00;;
22812;SDS011;11573;51.334;3.244;2023-04-24T05:46:52;21.75;;;7.90;;
22812;SDS011;11573;51.334;3.244;2023-04-24T05:49:22;27.73;;;8.52;;
22812;SDS011;11573;51.334;3.244;2023-04-24T05:51:49;21.02;;;7.78;;
22812;SDS011;11573;51.334;3.244;2023-04-24T05:54:17;22.65;;;7.70;;
22812;SDS011;11573;51.334;3.244;2023-04-24T05:56:44;26.40;;;7.45;;
22812;SDS011;11573;51.334;3.244;2023-04-24T05:59:16;22.75;;;7.32;;
22812;SDS011;11573;51.334;3.244;2023-04-24T06:01:43;22.73;;;6.40;;
22812;SDS011;11573;51.334;3.244;2023-04-24T06:04:15;14.68;;;5.57;;
22812;SDS011;11573;51.334;3.244;2023-04-24T06:06:43;25.67;;;5.60;;
22812;SDS011;11573;51.334;3.244;2023-04-24T06:09:09;18.15;;;5.78;;
22812;SDS011;11573;51.334;3.244;2023-04-24T06:11:38;21.05;;;6.18;;
22812;SDS011;11573;51.334;3.244;2023-04-24T06:14:08;16.60;;;5.20;;
22812;SDS011;11573;51.334;3.244;2023-04-24T06:16:37;16.15;;;5.68;;
22812;SDS011;11573;51.334;3.244;2023-04-24T06:19:29;19.00;;;5.60;;
22812;SDS011;11573;51.334;3.244;2023-04-24T06:21:56;25.77;;;5.68;;
22812;SDS011;11573;51.334;3.244;2023-04-24T06:24:27;21.90;;;5.15;;
22812;SDS011;11573;51.334;3.244;2023-04-24T06:26:54;20.27;;;5.25;;
22812;SDS011;11573;51.334;3.244;2023-04-24T06:29:23;17.92;;;4.72;;
22812;SDS011;11573;51.334;3.244;2023-04-24T06:31:49;21.50;;;5.47;;
22812;SDS011;11573;51.334;3.244;2023-04-24T06:34:17;19.58;;;5.38;;
22812;SDS011;11573;51.334;3.244;2023-04-24T06:36:46;17.08;;;4.85;;
22812;SDS011;11573;51.334;3.244;2023-04-24T06:39:13;23.08;;;4.30;;
22812;SDS011;11573;51.334;3.244;2023-04-24T06:41:40;17.70;;;4.78;;
22812;SDS011;11573;51.334;3.244;2023-04-24T06:44:17;26.30;;;4.78;;
22812;SDS011;11573;51.334;3.244;2023-04-24T06:46:44;20.67;;;5.15;;
22812;SDS011;11573;51.334;3.244;2023-04-24T06:49:11;16.55;;;4.70;;
22812;SDS011;11573;51.334;3.244;2023-04-24T06:51:38;25.92;;;5.13;;
22812;SDS011;11573;51.334;3.244;2023-04-24T06:54:05;19.77;;;4.90;;
22812;SDS011;11573;51.334;3.244;2023-04-24T06:56:32;21.88;;;5.35;;
22812;SDS011;11573;51.334;3.244;2023-04-24T06:59:00;15.93;;;5.18;;
22812;SDS011;11573;51.334;3.244;2023-04-24T07:01:27;16.08;;;4.75;;
22812;SDS011;11573;51.334;3.244;2023-04-24T07:03:54;16.70;;;4.72;;
22812;SDS011;11573;51.334;3.244;2023-04-24T07:06:22;17.63;;;6.82;;
22812;SDS011;11573;51.334;3.244;2023-04-24T07:08:50;22.60;;;7.20;;
22812;SDS011;11573;51.334;3.244;2023-04-24T07:11:17;21.08;;;6.88;;
22812;SDS011;11573;51.334;3.244;2023-04-24T07:13:44;18.45;;;5.55;;
22812;SDS011;11573;51.334;3.244;2023-04-24T07:16:11;21.00;;;5.88;;
22812;SDS011;11573;51.334;3.244;2023-04-24T07:18:38;16.15;;;5.60;;
22812;SDS011;11573;51.334;3.244;2023-04-24T07:21:06;15.57;;;4.53;;
22812;SDS011;11573;51.334;3.244;2023-04-24T07:23:33;11.90;;;4.13;;
22812;SDS011;11573;51.334;3.244;2023-04-24T07:26:00;17.67;;;3.92;;
22812;SDS011;11573;51.334;3.244;2023-04-24T07:28:27;16.65;;;4.15;;
22812;SDS011;11573;51.334;3.244;2023-04-24T07:30:57;16.75;;;4.57;;
22812;SDS011;11573;51.334;3.244;2023-04-24T07:33:26;17.95;;;4.38;;
22812;SDS011;11573;51.334;3.244;2023-04-24T07:35:53;14.90;;;4.15;;
22812;SDS011;11573;51.334;3.244;2023-04-24T07:38:20;21.35;;;4.18;;
22812;SDS011;11573;51.334;3.244;2023-04-24T07:40:48;16.95;;;4.40;;
22812;SDS011;11573;51.334;3.244;2023-04-24T07:43:15;13.02;;;3.97;;
22812;SDS011;11573;51.334;3.244;2023-04-24T07:45:42;17.45;;;4.18;;
22812;SDS011;11573;51.334;3.244;2023-04-24T07:48:10;16.80;;;3.80;;
22812;SDS011;11573;51.334;3.244;2023-04-24T07:50:37;16.58;;;3.50;;
22812;SDS011;11573;51.334;3.244;2023-04-24T07:53:04;18.58;;;4.05;;
22812;SDS011;11573;51.334;3.244;2023-04-24T07:55:31;20.60;;;3.85;;
22812;SDS011;11573;51.334;3.244;2023-04-24T07:57:58;13.95;;;3.53;;
22812;SDS011;11573;51.334;3.244;2023-04-24T08:00:25;18.10;;;3.97;;
22812;SDS011;11573;51.334;3.244;2023-04-24T08:02:52;16.35;;;4.38;;
22812;SDS011;11573;51.334;3.244;2023-04-24T08:05:19;22.17;;;4.97;;
22812;SDS011;11573;51.334;3.244;2023-04-24T08:07:46;11.35;;;3.95;;
22812;SDS011;11573;51.334;3.244;2023-04-24T08:10:16;15.45;;;3.90;;
22812;SDS011;11573;51.334;3.244;2023-04-24T08:12:43;8.98;;;3.55;;
22812;SDS011;11573;51.334;3.244;2023-04-24T08:15:10;14.48;;;4.45;;
22812;SDS011;11573;51.334;3.244;2023-04-24T08:17:37;8.88;;;3.35;;
22812;SDS011;11573;51.334;3.244;2023-04-24T08:20:04;11.07;;;4.25;;
22812;SDS011;11573;51.334;3.244;2023-04-24T08:22:36;14.10;;;4.32;;
22812;SDS011;11573;51.334;3.244;2023-04-24T08:25:03;13.63;;;4.10;;
22812;SDS011;11573;51.334;3.244;2023-04-24T08:27:31;15.27;;;4.15;;
22812;SDS011;11573;51.334;3.244;2023-04-24T08:29:57;9.90;;;3.40;;
22812;SDS011;11573;51.334;3.244;2023-04-24T08:32:27;18.27;;;4.07;;
22812;SDS011;11573;51.334;3.244;2023-04-24T08:34:55;12.25;;;3.88;;
22812;SDS011;11573;51.334;3.244;2023-04-24T08:37:23;10.45;;;3.42;;
22812;SDS011;11573;51.334;3.244;2023-04-24T08:39:50;13.05;;;3.42;;
22812;SDS011;11573;51.334;3.244;2023-04-24T08:42:18;6.28;;;2.83;;
22812;SDS011;11573;51.334;3.244;2023-04-24T08:44:46;13.85;;;3.50;;
22812;SDS011;11573;51.334;3.244;2023-04-24T08:47:14;12.70;;;3.80;;
22812;SDS011;11573;51.334;3.244;2023-04-24T08:49:42;11.45;;;4.20;;
22812;SDS011;11573;51.334;3.244;2023-04-24T08:52:10;14.20;;;3.03;;
22812;SDS011;11573;51.334;3.244;2023-04-24T08:54:39;13.10;;;3.22;;
22812;SDS011;11573;51.334;3.244;2023-04-24T08:57:07;11.40;;;3.30;;
22812;SDS011;11573;51.334;3.244;2023-04-24T08:59:37;10.93;;;3.45;;
22812;SDS011;11573;51.334;3.244;2023-04-24T09:02:04;13.90;;;3.33;;
22812;SDS011;11573;51.334;3.244;2023-04-24T09:04:33;9.13;;;3.38;;
22812;SDS011;11573;51.334;3.244;2023-04-24T09:07:01;15.43;;;3.17;;
22812;SDS011;11573;51.334;3.244;2023-04-24T09:09:30;11.02;;;3.35;;
22812;SDS011;11573;51.334;3.244;2023-04-24T09:11:59;9.95;;;2.85;;
22812;SDS011;11573;51.334;3.244;2023-04-24T09:14:27;9.68;;;2.42;;
22812;SDS011;11573;51.334;3.244;2023-04-24T09:16:54;8.35;;;2.35;;
22812;SDS011;11573;51.334;3.244;2023-04-24T09:19:21;10.98;;;2.50;;
22812;SDS011;11573;51.334;3.244;2023-04-24T09:21:48;15.07;;;3.13;;
22812;SDS011;11573;51.334;3.244;2023-04-24T09:24:17;5.78;;;2.25;;
22812;SDS011;11573;51.334;3.244;2023-04-24T09:26:46;5.18;;;2.10;;
22812;SDS011;11573;51.334;3.244;2023-04-24T09:29:14;11.65;;;2.55;;
22812;SDS011;11573;51.334;3.244;2023-04-24T09:31:43;7.75;;;2.85;;
22812;SDS011;11573;51.334;3.244;2023-04-24T09:34:11;9.63;;;2.35;;
22812;SDS011;11573;51.334;3.244;2023-04-24T09:36:40;8.95;;;2.97;;
22812;SDS011;11573;51.334;3.244;2023-04-24T09:39:10;10.00;;;2.40;;
22812;SDS011;11573;51.334;3.244;2023-04-24T09:44:20;9.77;;;2.25;;
22812;SDS011;11573;51.334;3.244;2023-04-24T09:46:52;4.93;;;1.70;;
22812;SDS011;11573;51.334;3.244;2023-04-24T09:49:23;8.07;;;2.72;;
22812;SDS011;11573;51.334;3.244;2023-04-24T09:52:03;6.80;;;2.15;;
22812;SDS011;11573;51.334;3.244;2023-04-24T09:54:35;7.43;;;2.40;;
22812;SDS011;11573;51.334;3.244;2023-04-24T09:57:07;7.32;;;2.17;;
22812;SDS011;11573;51.334;3.244;2023-04-24T09:59:35;5.63;;;2.22;;
22812;SDS011;11573;51.334;3.244;2023-04-24T10:02:19;7.45;;;2.22;;
22812;SDS011;11573;51.334;3.244;2023-04-24T10:04:56;6.53;;;2.25;;
22812;SDS011;11573;51.334;3.244;2023-04-24T10:07:26;10.48;;;2.33;;
22812;SDS011;11573;51.334;3.244;2023-04-24T10:09:53;7.80;;;2.35;;
22812;SDS011;11573;51.334;3.244;2023-04-24T10:12:21;10.43;;;2.25;;
22812;SDS011;11573;51.334;3.244;2023-04-24T10:14:49;9.73;;;2.58;;
22812;SDS011;11573;51.334;3.244;2023-04-24T10:17:16;7.57;;;2.22;;
22812;SDS011;11573;51.334;3.244;2023-04-24T10:19:46;10.52;;;2.55;;
22812;SDS011;11573;51.334;3.244;2023-04-24T10:22:14;9.23;;;2.47;;
22812;SDS011;11573;51.334;3.244;2023-04-24T10:24:44;6.40;;;2.25;;
22812;SDS011;11573;51.334;3.244;2023-04-24T10:27:13;7.55;;;2.72;;
22812;SDS011;11573;51.334;3.244;2023-04-24T10:29:41;4.88;;;2.00;;
22812;SDS011;11573;51.334;3.244;2023-04-24T10:32:11;8.30;;;2.80;;
22812;SDS011;11573;51.334;3.244;2023-04-24T10:34:40;7.38;;;2.55;;
22812;SDS011;11573;51.334;3.244;2023-04-24T10:37:07;8.25;;;2.53;;
22812;SDS011;11573;51.334;3.244;2023-04-24T10:39:34;10.07;;;2.78;;
22812;SDS011;11573;51.334;3.244;2023-04-24T10:42:02;9.05;;;2.15;;
22812;SDS011;11573;51.334;3.244;2023-04-24T10:44:40;3.40;;;1.60;;
22812;SDS011;11573;51.334;3.244;2023-04-24T10:47:12;9.20;;;2.30;;
22812;SDS011;11573;51.334;3.244;2023-04-24T10:49:40;8.13;;;2.20;;
22812;SDS011;11573;51.334;3.244;2023-04-24T10:52:08;6.97;;;2.20;;
22812;SDS011;11573;51.334;3.244;2023-04-24T10:54:44;11.55;;;2.58;;
22812;SDS011;11573;51.334;3.244;2023-04-24T10:59:53;10.05;;;2.97;;
22812;SDS011;11573;51.334;3.244;2023-04-24T11:02:41;5.63;;;2.50;;
22812;SDS011;11573;51.334;3.244;2023-04-24T11:05:15;6.80;;;2.20;;
22812;SDS011;11573;51.334;3.244;2023-04-24T11:10:54;3.95;;;2.08;;
22812;SDS011;11573;51.334;3.244;2023-04-24T11:13:25;7.68;;;2.13;;
22812;SDS011;11573;51.334;3.244;2023-04-24T11:16:11;6.65;;;1.90;;
22812;SDS011;11573;51.334;3.244;2023-04-24T11:18:41;3.53;;;1.67;;
22812;SDS011;11573;51.334;3.244;2023-04-24T11:21:12;7.60;;;2.40;;
22812;SDS011;11573;51.334;3.244;2023-04-24T11:23:39;9.93;;;2.58;;
22812;SDS011;11573;51.334;3.244;2023-04-24T11:26:11;8.02;;;2.38;;
22812;SDS011;11573;51.334;3.244;2023-04-24T11:28:47;9.10;;;2.33;;
22812;SDS011;11573;51.334;3.244;2023-04-24T11:34:23;4.30;;;2.00;;
22812;SDS011;11573;51.334;3.244;2023-04-24T11:36:51;5.82;;;2.13;;
22812;SDS011;11573;51.334;3.244;2023-04-24T11:39:18;7.72;;;1.75;;
22812;SDS011;11573;51.334;3.244;2023-04-24T11:41:45;9.43;;;2.03;;
22812;SDS011;11573;51.334;3.244;2023-04-24T11:44:13;6.60;;;1.98;;
22812;SDS011;11573;51.334;3.244;2023-04-24T11:46:41;5.47;;;1.90;;
22812;SDS011;11573;51.334;3.244;2023-04-24T11:49:09;7.63;;;1.83;;
22812;SDS011;11573;51.334;3.244;2023-04-24T11:51:36;4.70;;;1.77;;
22812;SDS011;11573;51.334;3.244;2023-04-24T11:54:18;4.68;;;1.40;;
22812;SDS011;11573;51.334;3.244;2023-04-24T11:56:49;8.07;;;1.63;;
22812;SDS011;11573;51.334;3.244;2023-04-24T11:59:16;5.15;;;1.70;;
22812;SDS011;11573;51.334;3.244;2023-04-24T12:01:47;7.40;;;2.00;;
22812;SDS011;11573;51.334;3.244;2023-04-24T12:04:16;7.00;;;2.05;;
22812;SDS011;11573;51.334;3.244;2023-04-24T12:07:00;6.43;;;1.63;;
22812;SDS011;11573;51.334;3.244;2023-04-24T12:09:28;5.15;;;1.45;;
22812;SDS011;11573;51.334;3.244;2023-04-24T12:11:58;4.05;;;1.42;;
22812;SDS011;11573;51.334;3.244;2023-04-24T12:14:25;5.88;;;1.58;;
22812;SDS011;11573;51.334;3.244;2023-04-24T12:16:52;7.63;;;1.63;;
22812;SDS011;11573;51.334;3.244;2023-04-24T12:19:22;9.15;;;1.77;;
22812;SDS011;11573;51.334;3.244;2023-04-24T12:22:03;5.35;;;1.45;;
22812;SDS011;11573;51.334;3.244;2023-04-24T12:24:31;8.27;;;1.48;;
22812;SDS011;11573;51.334;3.244;2023-04-24T12:26:59;8.93;;;1.48;;
22812;SDS011;11573;51.334;3.244;2023-04-24T12:29:27;2.97;;;1.23;;
22812;SDS011;11573;51.334;3.244;2023-04-24T12:31:54;5.22;;;1.52;;
22812;SDS011;11573;51.334;3.244;2023-04-24T12:34:22;5.28;;;1.58;;
22812;SDS011;11573;51.334;3.244;2023-04-24T12:36:51;6.00;;;1.67;;
22812;SDS011;11573;51.334;3.244;2023-04-24T12:39:18;6.32;;;2.03;;
22812;SDS011;11573;51.334;3.244;2023-04-24T12:41:56;6.03;;;1.70;;
22812;SDS011;11573;51.334;3.244;2023-04-24T12:44:30;3.97;;;1.45;;
22812;SDS011;11573;51.334;3.244;2023-04-24T12:46:58;8.33;;;2.40;;
22812;SDS011;11573;51.334;3.244;2023-04-24T12:49:25;6.43;;;1.88;;
22812;SDS011;11573;51.334;3.244;2023-04-24T12:51:52;12.25;;;2.47;;
22812;SDS011;11573;51.334;3.244;2023-04-24T12:54:20;6.50;;;1.63;;
22812;SDS011;11573;51.334;3.244;2023-04-24T12:56:47;4.60;;;1.98;;
22812;SDS011;11573;51.334;3.244;2023-04-24T12:59:14;8.77;;;2.33;;
22812;SDS011;11573;51.334;3.244;2023-04-24T13:01:41;5.78;;;1.73;;
22812;SDS011;11573;51.334;3.244;2023-04-24T13:04:08;6.53;;;1.92;;
22812;SDS011;11573;51.334;3.244;2023-04-24T13:06:35;8.70;;;2.08;;
22812;SDS011;11573;51.334;3.244;2023-04-24T13:09:02;9.13;;;1.90;;
22812;SDS011;11573;51.334;3.244;2023-04-24T13:11:29;5.25;;;2.28;;
22812;SDS011;11573;51.334;3.244;2023-04-24T13:13:56;8.57;;;2.40;;
22812;SDS011;11573;51.334;3.244;2023-04-24T13:16:23;6.15;;;2.10;;
22812;SDS011;11573;51.334;3.244;2023-04-24T13:18:50;7.68;;;2.30;;
22812;SDS011;11573;51.334;3.244;2023-04-24T13:21:17;5.38;;;2.22;;
22812;SDS011;11573;51.334;3.244;2023-04-24T13:23:44;10.25;;;2.70;;
22812;SDS011;11573;51.334;3.244;2023-04-24T13:26:11;5.82;;;2.08;;
22812;SDS011;11573;51.334;3.244;2023-04-24T13:28:38;5.95;;;2.10;;
22812;SDS011;11573;51.334;3.244;2023-04-24T13:31:05;7.50;;;2.20;;
22812;SDS011;11573;51.334;3.244;2023-04-24T13:33:34;4.70;;;2.15;;
22812;SDS011;11573;51.334;3.244;2023-04-24T13:36:01;6.28;;;1.88;;
22812;SDS011;11573;51.334;3.244;2023-04-24T13:38:28;10.68;;;2.70;;
22812;SDS011;11573;51.334;3.244;2023-04-24T13:40:55;7.07;;;2.50;;
22812;SDS011;11573;51.334;3.244;2023-04-24T13:43:22;5.70;;;2.28;;
22812;SDS011;11573;51.334;3.244;2023-04-24T13:45:49;7.22;;;2.20;;
22812;SDS011;11573;51.334;3.244;2023-04-24T13:48:16;7.43;;;2.38;;
22812;SDS011;11573;51.334;3.244;2023-04-24T13:50:44;10.57;;;2.58;;
22812;SDS011;11573;51.334;3.244;2023-04-24T13:53:11;5.57;;;2.75;;
22812;SDS011;11573;51.334;3.244;2023-04-24T13:55:38;7.93;;;2.60;;
22812;SDS011;11573;51.334;3.244;2023-04-24T13:58:05;5.82;;;2.60;;
22812;SDS011;11573;51.334;3.244;2023-04-24T14:00:32;3.95;;;2.10;;
22812;SDS011;11573;51.334;3.244;2023-04-24T14:02:59;6.68;;;2.58;;
22812;SDS011;11573;51.334;3.244;2023-04-24T14:05:27;4.90;;;2.10;;
22812;SDS011;11573;51.334;3.244;2023-04-24T14:07:54;7.45;;;2.58;;
22812;SDS011;11573;51.334;3.244;2023-04-24T14:10:21;11.23;;;3.38;;
22812;SDS011;11573;51.334;3.244;2023-04-24T14:12:48;7.82;;;2.60;;
22812;SDS011;11573;51.334;3.244;2023-04-24T14:15:15;7.75;;;2.45;;
22812;SDS011;11573;51.334;3.244;2023-04-24T14:17:43;6.72;;;2.42;;
22812;SDS011;11573;51.334;3.244;2023-04-24T14:20:10;8.68;;;2.67;;
22812;SDS011;11573;51.334;3.244;2023-04-24T14:22:38;8.27;;;2.65;;
22812;SDS011;11573;51.334;3.244;2023-04-24T14:25:05;10.80;;;2.50;;
22812;SDS011;11573;51.334;3.244;2023-04-24T14:27:33;6.53;;;2.22;;
22812;SDS011;11573;51.334;3.244;2023-04-24T14:30:01;4.95;;;2.08;;
22812;SDS011;11573;51.334;3.244;2023-04-24T14:32:28;13.40;;;3.30;;
22812;SDS011;11573;51.334;3.244;2023-04-24T14:34:55;6.32;;;2.10;;
22812;SDS011;11573;51.334;3.244;2023-04-24T14:37:22;6.15;;;2.05;;
22812;SDS011;11573;51.334;3.244;2023-04-24T14:39:49;10.07;;;2.67;;
22812;SDS011;11573;51.334;3.244;2023-04-24T14:42:36;8.45;;;2.22;;
22812;SDS011;11573;51.334;3.244;2023-04-24T14:45:03;5.88;;;2.03;;
22812;SDS011;11573;51.334;3.244;2023-04-24T14:47:30;7.30;;;2.33;;
22812;SDS011;11573;51.334;3.244;2023-04-24T14:49:58;5.43;;;2.15;;
22812;SDS011;11573;51.334;3.244;2023-04-24T14:52:25;9.35;;;2.53;;
22812;SDS011;11573;51.334;3.244;2023-04-24T14:54:52;7.10;;;2.20;;
22812;SDS011;11573;51.334;3.244;2023-04-24T14:57:19;5.75;;;2.70;;
22812;SDS011;11573;51.334;3.244;2023-04-24T14:59:46;4.35;;;1.92;;
22812;SDS011;11573;51.334;3.244;2023-04-24T15:02:13;4.07;;;2.17;;
22812;SDS011;11573;51.334;3.244;2023-04-24T15:04:42;8.63;;;2.50;;
22812;SDS011;11573;51.334;3.244;2023-04-24T15:07:10;11.02;;;2.40;;
22812;SDS011;11573;51.334;3.244;2023-04-24T15:09:37;6.22;;;2.40;;
22812;SDS011;11573;51.334;3.244;2023-04-24T15:12:04;6.30;;;2.42;;
22812;SDS011;11573;51.334;3.244;2023-04-24T15:14:31;9.35;;;2.38;;
22812;SDS011;11573;51.334;3.244;2023-04-24T15:16:59;5.45;;;2.50;;
22812;SDS011;11573;51.334;3.244;2023-04-24T15:19:26;3.72;;;1.98;;
22812;SDS011;11573;51.334;3.244;2023-04-24T15:21:53;7.90;;;2.47;;
22812;SDS011;11573;51.334;3.244;2023-04-24T15:24:20;4.88;;;2.38;;
22812;SDS011;11573;51.334;3.244;2023-04-24T15:26:47;7.85;;;2.65;;
22812;SDS011;11573;51.334;3.244;2023-04-24T15:29:14;5.60;;;2.45;;
22812;SDS011;11573;51.334;3.244;2023-04-24T15:31:41;5.93;;;2.83;;
22812;SDS011;11573;51.334;3.244;2023-04-24T15:34:08;8.30;;;2.60;;
22812;SDS011;11573;51.334;3.244;2023-04-24T15:36:35;4.78;;;2.45;;
22812;SDS011;11573;51.334;3.244;2023-04-24T15:39:02;7.65;;;3.20;;
22812;SDS011;11573;51.334;3.244;2023-04-24T15:41:32;6.90;;;2.58;;
22812;SDS011;11573;51.334;3.244;2023-04-24T15:43:59;6.93;;;2.33;;
22812;SDS011;11573;51.334;3.244;2023-04-24T15:46:26;5.47;;;2.38;;
22812;SDS011;11573;51.334;3.244;2023-04-24T15:48:53;5.25;;;2.60;;
22812;SDS011;11573;51.334;3.244;2023-04-24T15:51:20;6.65;;;2.40;;
22812;SDS011;11573;51.334;3.244;2023-04-24T15:53:47;10.90;;;2.90;;
22812;SDS011;11573;51.334;3.244;2023-04-24T15:56:15;5.80;;;2.40;;
22812;SDS011;11573;51.334;3.244;2023-04-24T15:58:42;6.60;;;3.20;;
22812;SDS011;11573;51.334;3.244;2023-04-24T16:01:09;7.72;;;2.47;;
22812;SDS011;11573;51.334;3.244;2023-04-24T16:03:37;9.73;;;2.35;;
22812;SDS011;11573;51.334;3.244;2023-04-24T16:06:04;9.23;;;3.10;;
22812;SDS011;11573;51.334;3.244;2023-04-24T16:08:32;8.10;;;2.97;;
22812;SDS011;11573;51.334;3.244;2023-04-24T16:10:59;8.85;;;2.95;;
22812;SDS011;11573;51.334;3.244;2023-04-24T16:13:28;7.95;;;2.88;;
22812;SDS011;11573;51.334;3.244;2023-04-24T16:15:57;5.55;;;2.90;;
22812;SDS011;11573;51.334;3.244;2023-04-24T16:18:24;5.80;;;2.53;;
22812;SDS011;11573;51.334;3.244;2023-04-24T16:20:52;6.13;;;2.63;;
22812;SDS011;11573;51.334;3.244;2023-04-24T16:23:19;6.70;;;2.75;;
22812;SDS011;11573;51.334;3.244;2023-04-24T16:25:46;6.10;;;2.75;;
22812;SDS011;11573;51.334;3.244;2023-04-24T16:28:13;7.22;;;2.47;;
22812;SDS011;11573;51.334;3.244;2023-04-24T16:30:40;4.75;;;2.25;;
22812;SDS011;11573;51.334;3.244;2023-04-24T16:33:07;7.35;;;2.70;;
22812;SDS011;11573;51.334;3.244;2023-04-24T16:35:36;7.57;;;2.83;;
22812;SDS011;11573;51.334;3.244;2023-04-24T16:38:03;9.52;;;3.30;;
22812;SDS011;11573;51.334;3.244;2023-04-24T16:40:30;9.65;;;2.85;;
22812;SDS011;11573;51.334;3.244;2023-04-24T16:42:57;5.25;;;2.80;;
22812;SDS011;11573;51.334;3.244;2023-04-24T16:45:24;11.55;;;3.00;;
22812;SDS011;11573;51.334;3.244;2023-04-24T16:47:51;5.50;;;2.80;;
22812;SDS011;11573;51.334;3.244;2023-04-24T16:50:19;7.68;;;3.33;;
22812;SDS011;11573;51.334;3.244;2023-04-24T16:52:46;15.20;;;3.28;;
22812;SDS011;11573;51.334;3.244;2023-04-24T16:55:13;7.90;;;2.58;;
22812;SDS011;11573;51.334;3.244;2023-04-24T16:57:41;8.40;;;2.95;;
22812;SDS011;11573;51.334;3.244;2023-04-24T17:00:08;9.00;;;3.40;;
22812;SDS011;11573;51.334;3.244;2023-04-24T17:02:36;12.07;;;3.33;;
22812;SDS011;11573;51.334;3.244;2023-04-24T17:05:03;12.90;;;3.50;;
22812;SDS011;11573;51.334;3.244;2023-04-24T17:07:31;10.70;;;3.83;;
22812;SDS011;11573;51.334;3.244;2023-04-24T17:09:58;12.82;;;4.13;;
22812;SDS011;11573;51.334;3.244;2023-04-24T17:12:25;9.60;;;2.90;;
22812;SDS011;11573;51.334;3.244;2023-04-24T17:14:52;10.88;;;2.90;;
22812;SDS011;11573;51.334;3.244;2023-04-24T17:17:19;12.90;;;3.67;;
22812;SDS011;11573;51.334;3.244;2023-04-24T17:19:48;11.45;;;3.05;;
22812;SDS011;11573;51.334;3.244;2023-04-24T17:22:16;13.07;;;3.45;;
22812;SDS011;11573;51.334;3.244;2023-04-24T17:24:43;12.27;;;2.92;;
22812;SDS011;11573;51.334;3.244;2023-04-24T17:27:10;14.68;;;3.90;;
22812;SDS011;11573;51.334;3.244;2023-04-24T17:29:40;15.93;;;3.53;;
22812;SDS011;11573;51.334;3.244;2023-04-24T17:32:08;15.02;;;3.67;;
22812;SDS011;11573;51.334;3.244;2023-04-24T17:34:36;12.00;;;3.47;;
22812;SDS011;11573;51.334;3.244;2023-04-24T17:37:03;14.07;;;4.40;;
22812;SDS011;11573;51.334;3.244;2023-04-24T17:39:30;16.35;;;4.03;;
22812;SDS011;11573;51.334;3.244;2023-04-24T17:41:57;13.50;;;3.50;;
22812;SDS011;11573;51.334;3.244;2023-04-24T17:44:24;14.02;;;4.00;;
22812;SDS011;11573;51.334;3.244;2023-04-24T17:46:51;11.95;;;4.07;;
22812;SDS011;11573;51.334;3.244;2023-04-24T17:49:18;14.40;;;4.03;;
22812;SDS011;11573;51.334;3.244;2023-04-24T17:51:47;8.82;;;3.75;;
22812;SDS011;11573;51.334;3.244;2023-04-24T17:54:14;16.90;;;4.80;;
22812;SDS011;11573;51.334;3.244;2023-04-24T17:56:43;12.88;;;4.22;;
22812;SDS011;11573;51.334;3.244;2023-04-24T17:59:11;18.00;;;4.45;;
22812;SDS011;11573;51.334;3.244;2023-04-24T18:01:38;14.45;;;4.13;;
22812;SDS011;11573;51.334;3.244;2023-04-24T18:04:05;14.90;;;4.30;;
22812;SDS011;11573;51.334;3.244;2023-04-24T18:06:33;12.07;;;4.20;;
22812;SDS011;11573;51.334;3.244;2023-04-24T18:09:00;16.92;;;4.13;;
22812;SDS011;11573;51.334;3.244;2023-04-24T18:11:27;14.80;;;3.95;;
22812;SDS011;11573;51.334;3.244;2023-04-24T18:13:54;13.27;;;3.78;;
22812;SDS011;11573;51.334;3.244;2023-04-24T18:16:21;12.63;;;4.28;;
22812;SDS011;11573;51.334;3.244;2023-04-24T18:18:51;14.02;;;4.03;;
22812;SDS011;11573;51.334;3.244;2023-04-24T18:21:19;16.00;;;4.60;;
22812;SDS011;11573;51.334;3.244;2023-04-24T18:23:46;17.95;;;4.25;;
22812;SDS011;11573;51.334;3.244;2023-04-24T18:26:13;13.55;;;4.18;;
22812;SDS011;11573;51.334;3.244;2023-04-24T18:28:42;13.70;;;4.45;;
22812;SDS011;11573;51.334;3.244;2023-04-24T18:31:10;23.45;;;4.20;;
22812;SDS011;11573;51.334;3.244;2023-04-24T18:33:37;11.32;;;4.18;;
22812;SDS011;11573;51.334;3.244;2023-04-24T18:36:04;12.52;;;3.75;;
22812;SDS011;11573;51.334;3.244;2023-04-24T18:38:31;14.30;;;4.05;;
22812;SDS011;11573;51.334;3.244;2023-04-24T18:40:58;14.68;;;3.95;;
22812;SDS011;11573;51.334;3.244;2023-04-24T18:43:26;13.80;;;4.38;;
22812;SDS011;11573;51.334;3.244;2023-04-24T18:45:53;16.08;;;3.88;;
22812;SDS011;11573;51.334;3.244;2023-04-24T18:48:21;15.15;;;4.22;;
22812;SDS011;11573;51.334;3.244;2023-04-24T18:50:48;18.98;;;4.40;;
22812;SDS011;11573;51.334;3.244;2023-04-24T18:53:15;11.88;;;4.10;;
22812;SDS011;11573;51.334;3.244;2023-04-24T18:55:43;14.15;;;4.68;;
22812;SDS011;11573;51.334;3.244;2023-04-24T18:58:11;13.90;;;4.13;;
22812;SDS011;11573;51.334;3.244;2023-04-24T19:00:38;11.85;;;3.92;;
22812;SDS011;11573;51.334;3.244;2023-04-24T19:03:05;12.27;;;3.83;;
22812;SDS011;11573;51.334;3.244;2023-04-24T19:05:34;15.45;;;4.18;;
22812;SDS011;11573;51.334;3.244;2023-04-24T19:08:02;18.55;;;5.32;;
22812;SDS011;11573;51.334;3.244;2023-04-24T19:10:29;14.43;;;4.72;;
22812;SDS011;11573;51.334;3.244;2023-04-24T19:12:56;15.60;;;4.75;;
22812;SDS011;11573;51.334;3.244;2023-04-24T19:15:24;15.77;;;4.57;;
22812;SDS011;11573;51.334;3.244;2023-04-24T19:17:51;25.17;;;5.00;;
22812;SDS011;11573;51.334;3.244;2023-04-24T19:20:18;18.95;;;4.57;;
22812;SDS011;11573;51.334;3.244;2023-04-24T19:22:46;16.60;;;4.45;;
22812;SDS011;11573;51.334;3.244;2023-04-24T19:25:14;22.70;;;5.20;;
22812;SDS011;11573;51.334;3.244;2023-04-24T19:27:41;15.68;;;4.70;;
22812;SDS011;11573;51.334;3.244;2023-04-24T19:30:08;21.13;;;5.63;;
22812;SDS011;11573;51.334;3.244;2023-04-24T19:32:35;18.13;;;5.00;;
22812;SDS011;11573;51.334;3.244;2023-04-24T19:35:04;17.83;;;5.00;;
22812;SDS011;11573;51.334;3.244;2023-04-24T19:37:31;28.73;;;6.38;;
22812;SDS011;11573;51.334;3.244;2023-04-24T19:40:00;16.55;;;4.95;;
22812;SDS011;11573;51.334;3.244;2023-04-24T19:42:27;22.75;;;5.72;;
22812;SDS011;11573;51.334;3.244;2023-04-24T19:45:10;24.00;;;5.00;;
22812;SDS011;11573;51.334;3.244;2023-04-24T19:47:37;19.88;;;5.57;;
22812;SDS011;11573;51.334;3.244;2023-04-24T19:50:05;21.45;;;5.00;;
22812;SDS011;11573;51.334;3.244;2023-04-24T19:52:33;16.65;;;4.57;;
22812;SDS011;11573;51.334;3.244;2023-04-24T19:55:00;17.48;;;4.72;;
22812;SDS011;11573;51.334;3.244;2023-04-24T19:57:27;15.98;;;4.63;;
22812;SDS011;11573;51.334;3.244;2023-04-24T19:59:54;18.35;;;4.63;;
22812;SDS011;11573;51.334;3.244;2023-04-24T20:02:22;16.10;;;4.57;;
22812;SDS011;11573;51.334;3.244;2023-04-24T20:04:49;15.77;;;4.75;;
22812;SDS011;11573;51.334;3.244;2023-04-24T20:07:17;19.55;;;4.60;;
22812;SDS011;11573;51.334;3.244;2023-04-24T20:09:44;18.70;;;4.70;;
22812;SDS011;11573;51.334;3.244;2023-04-24T20:12:11;26.42;;;5.45;;
22812;SDS011;11573;51.334;3.244;2023-04-24T20:14:39;20.40;;;4.65;;
22812;SDS011;11573;51.334;3.244;2023-04-24T20:17:07;21.77;;;4.78;;
22812;SDS011;11573;51.334;3.244;2023-04-24T20:19:34;26.42;;;5.47;;